Terminal Aerodrome Forecast
Issued by NWS Wilmington, OH

Current Version | Previous Version | Graphics & Text | Print | Product List | Glossary On
Versions: 1 2 3 4 5 6 7 8 9 10 11 12 13 14 15 16 17 18
000
FTUS41 KILN 221100
TAFCMH
TAF
KCMH 221125Z 2212/2312 12006KT P6SM SCT015 OVC050
     FM222000 12007KT P6SM SCT035 BKN150
     FM230400 12008KT P6SM VCSH SCT015 BKN040
     FM230600 12008KT 5SM -RA BR OVC012=

USA.gov is the U.S. government's official web portal to all federal, state and local government web resources and services.